Terminal Aerodrome Forecast
Issued by NWS Atlanta, GA

Home | Current Version | Previous Version | Text Only | Print | Product List | Glossary On
Versions: 1 2 3 4 5 6 7 8 9 10 11 12 13 14 15 16 17 18 19 20 21 22 23 24 25 26 27 28 29 30 31 32 33 34 35 36 37 38
316
FTUS42 KFFC 210344 AAB
TAFATL
TAF AMD
KATL 210344Z 2104/2206 12005KT P6SM BKN250
     FM210900 11006KT P6SM BKN040
     FM211800 12011KT P6SM BKN025
     FM212000 12012KT 5SM -SHRA BKN015
     FM220000 10010KT 3SM RA OVC007=

USA.gov is the U.S. government's official web portal to all federal, state and local government web resources and services.